Time,TemperatureF,DewpointF,PressureIn,WindDirection,WindDirectionDegrees,WindSpeedMPH,WindSpeedGustMPH,Humidity,HourlyPrecipIn,Conditions,Clouds,dailyrainin,SoftwareType,DateUTC
2013-09-23 00:01:00,49.8,41.5,30.03,WSW,248,1.5,2.7,73,0.00,BKN,,0.00,WeatherDisplay:10.37,2013-09-23 04:01:00,
2013-09-23 00:02:00,49.8,41.5,30.03,NNW,338,1.8,2.3,73,0.00,BKN,,0.00,WeatherDisplay:10.37,2013-09-23 04:02:00,
2013-09-23 00:07:00,49.8,41.5,30.03,West,270,0.9,1.7,73,0.00,BKN,,0.00,WeatherDisplay:10.37,2013-09-23 04:07:00,
2013-09-23 00:12:00,49.8,41.5,30.03,West,270,1.1,2.3,73,0.00,BKN,,0.00,WeatherDisplay:10.37,2013-09-23 04:12:00,
2013-09-23 00:17:00,49.8,41.5,30.03,SW,225,0.0,0.0,73,0.00,BKN,,0.00,WeatherDisplay:10.37,2013-09-23 04:17:00,
2013-09-23 00:22:00,49.8,41.8,30.03,NW,315,1.8,2.3,74,0.00,BKN,,0.00,WeatherDisplay:10.37,2013-09-23 04:22:00,
2013-09-23 00:27:00,49.8,41.5,30.03,East,90,1.6,2.3,73,0.00,BKN,,0.00,WeatherDisplay:10.37,2013-09-23 04:27:00,
2013-09-23 00:32:00,49.8,41.5,30.03,West,270,2.4,3.7,73,0.00,BKN,,0.00,WeatherDisplay:10.37,2013-09-23 04:32:00,
2013-09-23 00:37:00,49.8,41.1,30.03,North,360,1.9,2.3,72,0.00,BKN,,0.00,WeatherDisplay:10.37,2013-09-23 04:37:00,
2013-09-23 00:42:00,49.8,41.1,30.03,ENE,68,0.0,0.0,72,0.00,BKN,,0.00,WeatherDisplay:10.37,2013-09-23 04:42:00,
2013-09-23 00:47:00,49.8,41.5,30.03,South,180,0.4,2.3,73,0.00,BKN,,0.00,WeatherDisplay:10.37,2013-09-23 04:47:00,
2013-09-23 00:52:00,49.6,41.3,30.04,NNE,22,0.0,0.0,73,0.00,BKN,,0.00,WeatherDisplay:10.37,2013-09-23 04:52:00,
2013-09-23 00:57:00,49.6,41.3,30.04,NNW,338,0.0,0.0,73,0.00,BKN,,0.00,WeatherDisplay:10.37,2013-09-23 04:57:00,
2013-09-23 01:02:00,49.5,41.2,30.04,NNW,338,1.1,2.2,73,0.00,BKN,,0.00,WeatherDisplay:10.37,2013-09-23 05:02:00,
2013-09-23 01:07:00,49.5,41.2,30.04,SW,225,1.8,2.3,73,0.00,BKN,,0.00,WeatherDisplay:10.37,2013-09-23 05:07:00,
2013-09-23 01:12:00,49.6,41.3,30.04,North,360,1.5,2.2,73,0.00,BKN,,0.00,WeatherDisplay:10.37,2013-09-23 05:12:00,
2013-09-23 01:17:00,49.6,41.3,30.04,WSW,248,1.7,2.3,73,0.00,BKN,,0.00,WeatherDisplay:10.37,2013-09-23 05:17:00,
2013-09-23 01:22:00,49.6,41.3,30.04,West,270,2.6,2.7,73,0.00,BKN,,0.00,WeatherDisplay:10.37,2013-09-23 05:22:00,
2013-09-23 01:27:00,49.6,41.3,30.04,WSW,248,2.2,4.7,73,0.00,BKN,,0.00,WeatherDisplay:10.37,2013-09-23 05:27:00,
2013-09-23 01:32:00,49.6,41.3,30.04,WSW,248,2.2,3.5,73,0.00,BKN,,0.00,WeatherDisplay:10.37,2013-09-23 05:32:00,
2013-09-23 01:37:00,49.6,41.3,30.04,West,270,2.8,3.7,73,0.00,BKN,,0.00,WeatherDisplay:10.37,2013-09-23 05:37:00,
2013-09-23 01:42:00,49.6,41.3,30.04,WNW,292,1.8,5.3,73,0.00,BKN,,0.00,WeatherDisplay:10.37,2013-09-23 05:42:00,
2013-09-23 01:47:00,49.6,41.7,30.04,SW,225,0.0,0.0,74,0.00,BKN,,0.00,WeatherDisplay:10.37,2013-09-23 05:47:00,
2013-09-23 01:52:00,49.6,41.7,30.04,SW,225,0.0,0.0,74,0.00,BKN,,0.00,WeatherDisplay:10.37,2013-09-23 05:52:00,
2013-09-23 01:57:00,49.6,41.7,30.04,WSW,248,1.1,1.1,74,0.00,BKN,,0.00,WeatherDisplay:10.37,2013-09-23 05:57:00,
2013-09-23 02:02:00,49.6,41.7,30.05,WSW,248,0.8,1.1,74,0.00,BKN,,0.00,WeatherDisplay:10.37,2013-09-23 06:02:00,
2013-09-23 02:07:00,49.5,41.6,30.05,West,270,1.9,2.3,74,0.00,BKN,,0.00,WeatherDisplay:10.37,2013-09-23 06:07:00,
2013-09-23 02:12:00,49.5,41.6,30.05,ESE,112,0.0,0.0,74,0.00,BKN,,0.00,WeatherDisplay:10.37,2013-09-23 06:12:00,
2013-09-23 02:17:00,49.5,41.6,30.06,WNW,292,0.0,0.0,74,0.00,BKN,,0.00,WeatherDisplay:10.37,2013-09-23 06:17:00,
2013-09-23 02:22:00,49.5,41.6,30.06,West,270,0.5,1.7,74,0.00,BKN,,0.00,WeatherDisplay:10.37,2013-09-23 06:22:00,
2013-09-23 02:27:00,49.5,41.6,30.05,SW,225,0.7,2.2,74,0.00,BKN,,0.00,WeatherDisplay:10.37,2013-09-23 06:27:00,
2013-09-23 02:32:00,49.5,41.6,30.05,WSW,248,1.4,1.4,74,0.00,BKN,,0.00,WeatherDisplay:10.37,2013-09-23 06:32:00,
2013-09-23 02:37:00,49.5,41.6,30.05,SW,225,0.0,0.0,74,0.00,BKN,,0.00,WeatherDisplay:10.37,2013-09-23 06:37:00,
2013-09-23 02:42:00,49.5,41.9,30.05,SE,135,0.0,0.0,75,0.00,BKN,,0.00,WeatherDisplay:10.37,2013-09-23 06:42:00,
2013-09-23 02:47:00,49.3,41.7,30.05,NNW,338,0.3,1.1,75,0.00,BKN,,0.00,WeatherDisplay:10.37,2013-09-23 06:47:00,
2013-09-23 02:52:00,49.3,41.7,30.05,WSW,248,0.0,0.0,75,0.00,BKN,,0.00,WeatherDisplay:10.37,2013-09-23 06:52:00,
2013-09-23 02:57:00,49.3,41.7,30.05,SW,225,0.0,0.0,75,0.00,BKN,,0.00,WeatherDisplay:10.37,2013-09-23 06:57:00,
2013-09-23 03:02:00,49.3,41.7,30.06,NNW,338,0.0,0.0,75,0.00,BKN,,0.00,WeatherDisplay:10.37,2013-09-23 07:02:00,
2013-09-23 03:07:00,49.3,42.1,30.06,NW,315,0.3,1.1,76,0.00,BKN,,0.00,WeatherDisplay:10.37,2013-09-23 07:07:00,
2013-09-23 03:12:00,49.3,42.1,30.06,NNW,338,0.2,1.1,76,0.00,BKN,,0.00,WeatherDisplay:10.37,2013-09-23 07:12:00,
2013-09-23 03:17:00,49.3,42.1,30.06,WNW,292,0.6,1.1,76,0.00,BKN,,0.00,WeatherDisplay:10.37,2013-09-23 07:17:00,
2013-09-23 03:22:00,49.3,42.1,30.06,WSW,248,0.0,0.0,76,0.00,BKN,,0.00,WeatherDisplay:10.37,2013-09-23 07:22:00,
2013-09-23 03:27:00,49.3,42.1,30.05,South,180,0.0,0.0,76,0.00,BKN,,0.00,WeatherDisplay:10.37,2013-09-23 07:27:00,
2013-09-23 03:32:00,49.3,42.1,30.05,NNE,22,0.0,0.0,76,0.00,BKN,,0.00,WeatherDisplay:10.37,2013-09-23 07:32:00,
2013-09-23 03:37:00,49.3,42.1,30.06,SSW,202,0.0,1.1,76,0.00,BKN,,0.00,WeatherDisplay:10.37,2013-09-23 07:37:00,
2013-09-23 03:42:00,49.3,42.1,30.06,WNW,292,1.6,2.7,76,0.00,BKN,,0.00,WeatherDisplay:10.37,2013-09-23 07:42:00,
2013-09-23 03:47:00,49.3,42.1,30.06,West,270,0.8,3.5,76,0.00,BKN,,0.00,WeatherDisplay:10.37,2013-09-23 07:47:00,
2013-09-23 03:52:00,49.3,42.1,30.06,West,270,0.0,2.3,76,0.00,BKN,,0.00,WeatherDisplay:10.37,2013-09-23 07:52:00,
2013-09-23 03:57:00,49.3,42.1,30.06,ENE,68,0.9,1.1,76,0.00,BKN,,0.00,WeatherDisplay:10.37,2013-09-23 07:57:00,
2013-09-23 04:02:00,49.3,42.1,30.06,NE,45,0.0,1.1,76,0.00,BKN,,0.00,WeatherDisplay:10.37,2013-09-23 08:02:00,
2013-09-23 04:07:00,49.3,42.1,30.06,ESE,112,0.0,0.0,76,0.00,BKN,,0.00,WeatherDisplay:10.37,2013-09-23 08:07:00,
2013-09-23 04:12:00,49.3,42.1,30.06,WNW,292,0.0,0.0,76,0.00,BKN,,0.00,WeatherDisplay:10.37,2013-09-23 08:12:00,
2013-09-23 04:17:00,49.3,42.1,30.06,WSW,248,0.0,0.0,76,0.00,BKN,,0.00,WeatherDisplay:10.37,2013-09-23 08:17:00,
2013-09-23 04:22:00,49.3,42.1,30.06,West,270,0.0,0.0,76,0.00,BKN,,0.00,WeatherDisplay:10.37,2013-09-23 08:22:00,
2013-09-23 04:27:00,49.3,42.1,30.07,West,270,0.0,1.1,76,0.00,BKN,,0.00,WeatherDisplay:10.37,2013-09-23 08:27:00,
2013-09-23 04:32:00,49.3,42.1,30.07,West,270,0.0,0.0,76,0.00,BKN,,0.00,WeatherDisplay:10.37,2013-09-23 08:32:00,
2013-09-23 04:37:00,49.1,41.9,30.06,West,270,0.7,1.7,76,0.00,BKN,,0.00,WeatherDisplay:10.37,2013-09-23 08:37:00,
2013-09-23 04:42:00,49.1,41.9,30.06,SE,135,0.0,0.0,76,0.00,BKN,,0.00,WeatherDisplay:10.37,2013-09-23 08:42:00,
2013-09-23 04:47:00,49.1,41.9,30.06,East,90,0.0,0.0,76,0.00,BKN,,0.00,WeatherDisplay:10.37,2013-09-23 08:47:00,
2013-09-23 04:52:00,49.1,41.9,30.07,SE,135,0.0,0.0,76,0.00,BKN,,0.00,WeatherDisplay:10.37,2013-09-23 08:52:00,
2013-09-23 04:57:00,49.1,41.9,30.07,North,360,0.8,1.7,76,0.00,BKN,,0.00,WeatherDisplay:10.37,2013-09-23 08:57:00,
2013-09-23 05:02:00,49.1,41.9,30.07,SSW,202,0.0,0.0,76,0.00,BKN,,0.00,WeatherDisplay:10.37,2013-09-23 09:02:00,
2013-09-23 05:07:00,49.1,41.9,30.07,ENE,68,1.6,2.2,76,0.00,BKN,,0.00,WeatherDisplay:10.37,2013-09-23 09:07:00,
2013-09-23 05:12:00,49.1,41.9,30.07,NE,45,0.8,3.5,76,0.00,BKN,,0.00,WeatherDisplay:10.37,2013-09-23 09:12:00,
2013-09-23 05:17:00,49.1,41.5,30.07,West,270,1.6,2.3,75,0.00,BKN,,0.00,WeatherDisplay:10.37,2013-09-23 09:17:00,
2013-09-23 05:22:00,49.1,41.5,30.07,ESE,112,1.4,3.2,75,0.00,BKN,,0.00,WeatherDisplay:10.37,2013-09-23 09:22:00,
2013-09-23 05:27:00,49.1,41.5,30.08,SSW,202,0.3,1.1,75,0.00,BKN,,0.00,WeatherDisplay:10.37,2013-09-23 09:27:00,
2013-09-23 05:32:00,49.1,41.5,30.08,SSW,202,0.0,0.0,75,0.00,BKN,,0.00,WeatherDisplay:10.37,2013-09-23 09:32:00,
2013-09-23 05:37:00,48.7,41.1,30.08,ESE,112,0.6,2.3,75,0.00,BKN,,0.00,WeatherDisplay:10.37,2013-09-23 09:37:00,
2013-09-23 05:42:00,48.2,41.0,30.08,WSW,248,1.1,2.3,76,0.00,BKN,,0.00,WeatherDisplay:10.37,2013-09-23 09:42:00,
2013-09-23 05:47:00,47.8,40.9,30.08,SW,225,0.0,2.3,77,0.00,BKN,,0.00,WeatherDisplay:10.37,2013-09-23 09:47:00,
2013-09-23 05:52:00,47.5,40.6,30.08,South,180,0.0,0.0,77,0.00,BKN,,0.00,WeatherDisplay:10.37,2013-09-23 09:52:00,
2013-09-23 05:57:00,46.9,40.7,30.08,West,270,0.0,1.1,79,0.00,BKN,,0.00,WeatherDisplay:10.37,2013-09-23 09:57:00,
2013-09-23 06:02:00,46.4,40.2,30.08,ESE,112,0.0,0.0,79,0.00,BKN,,0.00,WeatherDisplay:10.37,2013-09-23 10:02:00,
2013-09-23 06:07:00,46.0,40.2,30.08,SSW,202,0.0,0.0,80,0.00,BKN,,0.00,WeatherDisplay:10.37,2013-09-23 10:07:00,
2013-09-23 06:12:00,45.5,40.0,30.08,SW,225,0.0,0.0,81,0.00,FEW,,0.00,WeatherDisplay:10.37,2013-09-23 10:12:00,
2013-09-23 06:17:00,45.1,39.6,30.08,SE,135,0.0,0.0,81,0.00,FEW,,0.00,WeatherDisplay:10.37,2013-09-23 10:17:00,
2013-09-23 06:22:00,44.6,39.4,30.08,West,270,0.0,0.0,82,0.00,FEW,,0.00,WeatherDisplay:10.37,2013-09-23 10:22:00,
2013-09-23 06:27:00,44.2,39.1,30.08,NE,45,0.0,0.0,82,0.00,FEW,,0.00,WeatherDisplay:10.37,2013-09-23 10:27:00,
2013-09-23 06:32:00,44.1,39.0,30.08,NE,45,0.0,0.0,82,0.00,FEW,,0.00,WeatherDisplay:10.37,2013-09-23 10:32:00,
2013-09-23 06:37:00,43.5,38.7,30.08,West,270,0.0,0.0,83,0.00,FEW,,0.00,WeatherDisplay:10.37,2013-09-23 10:37:00,
2013-09-23 06:42:00,43.2,38.4,30.09,West,270,0.0,0.0,83,0.00,FEW,,0.00,WeatherDisplay:10.37,2013-09-23 10:42:00,
2013-09-23 06:47:00,42.6,37.8,30.09,NNW,338,0.0,0.0,83,0.00,FEW,,0.00,WeatherDisplay:10.37,2013-09-23 10:47:00,
2013-09-23 06:52:00,42.4,37.9,30.10,NNW,338,0.0,0.0,84,0.00,FEW,,0.00,WeatherDisplay:10.37,2013-09-23 10:52:00,
2013-09-23 06:57:00,42.1,38.5,30.10,ESE,112,0.0,0.0,87,0.00,FEW,,0.00,WeatherDisplay:10.37,2013-09-23 10:57:00,
2013-09-23 07:02:00,41.9,38.9,30.10,SSW,202,0.0,0.0,89,0.00,FEW,,0.00,WeatherDisplay:10.37,2013-09-23 11:02:00,
2013-09-23 07:07:00,41.4,38.4,30.10,SSW,202,0.0,0.0,89,0.00,FEW,,0.00,WeatherDisplay:10.37,2013-09-23 11:07:00,
2013-09-23 07:12:00,41.2,37.9,30.10,SSW,202,0.0,0.0,88,0.00,FEW,,0.00,WeatherDisplay:10.37,2013-09-23 11:12:00,
2013-09-23 07:17:00,41.0,37.7,30.11,SSW,202,0.0,0.0,88,0.00,FEW,,0.00,WeatherDisplay:10.37,2013-09-23 11:17:00,
2013-09-23 07:22:00,40.6,37.3,30.11,SSW,202,0.0,0.0,88,0.00,FEW,,0.00,WeatherDisplay:10.37,2013-09-23 11:22:00,
2013-09-23 07:27:00,40.5,37.2,30.11,SSW,202,0.0,0.0,88,0.00,FEW,,0.00,WeatherDisplay:10.37,2013-09-23 11:27:00,
2013-09-23 07:32:00,40.8,38.7,30.11,SSW,202,0.0,0.0,92,0.00,FEW,,0.00,WeatherDisplay:10.37,2013-09-23 11:32:00,
2013-09-23 07:37:00,41.7,40.4,30.11,SSE,158,0.0,0.0,95,0.00,FEW,,0.00,WeatherDisplay:10.37,2013-09-23 11:37:00,
2013-09-23 07:42:00,42.4,41.1,30.11,SSE,158,0.0,0.0,95,0.00,FEW,,0.00,WeatherDisplay:10.37,2013-09-23 11:42:00,
2013-09-23 07:47:00,43.2,41.9,30.11,SSE,158,0.0,0.0,95,0.00,FEW,,0.00,WeatherDisplay:10.37,2013-09-23 11:47:00,
2013-09-23 07:52:00,44.2,42.9,30.12,SSE,158,0.0,0.0,95,0.00,FEW,,0.00,WeatherDisplay:10.37,2013-09-23 11:52:00,
2013-09-23 07:57:00,45.9,44.5,30.12,SSE,158,0.0,0.0,95,0.00,FEW,,0.00,WeatherDisplay:10.37,2013-09-23 11:57:00,
2013-09-23 08:02:00,48.2,45.1,30.12,South,180,0.0,0.0,89,0.00,FEW,,0.00,WeatherDisplay:10.37,2013-09-23 12:02:00,
2013-09-23 08:07:00,50.2,45.2,30.12,South,180,0.0,0.0,83,0.00,FEW,,0.00,WeatherDisplay:10.37,2013-09-23 12:07:00,
2013-09-23 08:12:00,52.0,45.7,30.12,South,180,0.0,0.0,79,0.00,FEW,,0.00,WeatherDisplay:10.37,2013-09-23 12:12:00,
2013-09-23 08:17:00,53.1,46.1,30.12,South,180,0.0,0.0,77,0.00,FEW,,0.00,WeatherDisplay:10.37,2013-09-23 12:17:00,
2013-09-23 08:22:00,53.8,45.7,30.12,SE,135,1.3,2.2,74,0.00,FEW,,0.00,WeatherDisplay:10.37,2013-09-23 12:22:00,
2013-09-23 08:27:00,55.6,44.8,30.12,ENE,68,1.7,2.3,67,0.00,FEW,,0.00,WeatherDisplay:10.37,2013-09-23 12:27:00,
2013-09-23 08:32:00,56.1,44.1,30.12,WNW,292,0.9,1.1,64,0.00,FEW,,0.00,WeatherDisplay:10.37,2013-09-23 12:32:00,
2013-09-23 08:37:00,57.2,44.3,30.12,ESE,112,2.3,2.3,62,0.00,FEW,,0.00,WeatherDisplay:10.37,2013-09-23 12:37:00,
2013-09-23 08:42:00,57.6,43.8,30.12,SE,135,2.5,2.7,60,0.00,FEW,,0.00,WeatherDisplay:10.37,2013-09-23 12:42:00,
2013-09-23 08:47:00,57.6,43.8,30.12,SE,135,2.2,2.3,60,0.00,FEW,,0.00,WeatherDisplay:10.37,2013-09-23 12:47:00,
2013-09-23 08:52:00,57.9,43.2,30.12,South,180,1.2,3.5,58,0.00,FEW,,0.00,WeatherDisplay:10.37,2013-09-23 12:52:00,
2013-09-23 08:57:00,58.5,43.3,30.12,ESE,112,1.8,2.3,57,0.00,FEW,,0.00,WeatherDisplay:10.37,2013-09-23 12:57:00,
2013-09-23 09:02:00,59.0,43.3,30.13,NNE,22,2.3,2.7,56,0.00,FEW,,0.00,WeatherDisplay:10.37,2013-09-23 13:02:00,
2013-09-23 09:07:00,58.6,42.5,30.13,West,270,1.1,1.7,55,0.00,FEW,,0.00,WeatherDisplay:10.37,2013-09-23 13:07:00,
2013-09-23 09:12:00,58.5,42.8,30.13,NNE,22,3.4,3.5,56,0.00,SCT,,0.00,WeatherDisplay:10.37,2013-09-23 13:12:00,
2013-09-23 09:17:00,59.5,42.3,30.13,West,270,2.3,3.7,53,0.00,SCT,,0.00,WeatherDisplay:10.37,2013-09-23 13:17:00,
2013-09-23 09:22:00,58.6,41.0,30.13,West,270,4.2,5.8,52,0.00,SCT,,0.00,WeatherDisplay:10.37,2013-09-23 13:22:00,
2013-09-23 09:27:00,57.2,40.7,30.13,ESE,112,2.9,3.5,54,0.00,SCT,,0.00,WeatherDisplay:10.37,2013-09-23 13:27:00,
2013-09-23 09:32:00,58.6,41.5,30.13,NNW,338,2.6,3.5,53,0.00,SCT,,0.00,WeatherDisplay:10.37,2013-09-23 13:32:00,
2013-09-23 09:37:00,59.5,41.9,30.13,SSE,158,2.7,3.5,52,0.00,SCT,,0.00,WeatherDisplay:10.37,2013-09-23 13:37:00,
2013-09-23 09:42:00,59.7,41.0,30.14,East,90,6.2,6.9,50,0.00,SCT,,0.00,WeatherDisplay:10.37,2013-09-23 13:42:00,
2013-09-23 09:47:00,59.2,40.6,30.14,ESE,112,3.1,4.6,50,0.00,SCT,,0.00,WeatherDisplay:10.37,2013-09-23 13:47:00,
2013-09-23 09:52:00,59.2,41.1,30.13,West,270,3.1,5.8,51,0.00,SCT,,0.00,WeatherDisplay:10.37,2013-09-23 13:52:00,
2013-09-23 09:57:00,59.0,40.4,30.13,NNE,22,5.0,5.8,50,0.00,SCT,,0.00,WeatherDisplay:10.37,2013-09-23 13:57:00,
2013-09-23 10:02:00,58.1,40.6,30.14,ENE,68,2.5,5.8,52,0.00,SCT,,0.00,WeatherDisplay:10.37,2013-09-23 14:02:00,
2013-09-23 10:07:00,58.5,40.9,30.14,West,270,4.8,5.8,52,0.00,SCT,,0.00,WeatherDisplay:10.37,2013-09-23 14:07:00,
2013-09-23 10:12:00,56.7,39.7,30.14,West,270,4.0,5.8,53,0.00,SCT,,0.00,WeatherDisplay:10.37,2013-09-23 14:12:00,
2013-09-23 10:17:00,56.5,39.6,30.14,ENE,68,3.8,5.8,53,0.00,SCT,,0.00,WeatherDisplay:10.37,2013-09-23 14:17:00,
2013-09-23 10:22:00,55.8,39.9,30.14,WNW,292,3.4,4.7,55,0.00,SCT,,0.00,WeatherDisplay:10.37,2013-09-23 14:22:00,
2013-09-23 10:27:00,55.4,39.5,30.15,West,270,3.0,3.5,55,0.00,SCT,,0.00,WeatherDisplay:10.37,2013-09-23 14:27:00,
2013-09-23 10:32:00,54.5,39.6,30.15,SSW,202,2.8,4.6,57,0.00,SCT,,0.00,WeatherDisplay:10.37,2013-09-23 14:32:00,
2013-09-23 10:37:00,54.5,39.6,30.14,NW,315,0.6,3.5,57,0.00,SCT,,0.00,WeatherDisplay:10.37,2013-09-23 14:37:00,
2013-09-23 10:42:00,54.9,39.9,30.14,NE,45,3.1,4.6,57,0.00,SCT,,0.00,WeatherDisplay:10.37,2013-09-23 14:42:00,
2013-09-23 10:47:00,54.7,39.3,30.14,SE,135,6.2,8.1,56,0.00,SCT,,0.00,WeatherDisplay:10.37,2013-09-23 14:47:00,
2013-09-23 10:52:00,54.3,39.8,30.14,ENE,68,3.3,5.8,58,0.00,SCT,,0.00,WeatherDisplay:10.37,2013-09-23 14:52:00,
2013-09-23 10:57:00,55.8,40.8,30.14,NNE,22,2.5,3.7,57,0.00,SCT,,0.00,WeatherDisplay:10.37,2013-09-23 14:57:00,
2013-09-23 11:02:00,55.9,40.0,30.15,North,360,2.8,4.6,55,0.00,SCT,,0.00,WeatherDisplay:10.37,2013-09-23 15:02:00,
2013-09-23 11:07:00,56.3,39.9,30.15,North,360,2.8,3.5,54,0.00,SCT,,0.00,WeatherDisplay:10.37,2013-09-23 15:07:00,
2013-09-23 11:12:00,58.3,41.2,30.15,West,270,3.4,4.6,53,0.00,BKN,,0.00,WeatherDisplay:10.37,2013-09-23 15:12:00,
2013-09-23 11:17:00,57.4,40.4,30.15,North,360,3.3,4.6,53,0.00,BKN,,0.00,WeatherDisplay:10.37,2013-09-23 15:17:00,
2013-09-23 11:22:00,56.8,39.8,30.15,West,270,5.2,5.8,53,0.00,BKN,,0.00,WeatherDisplay:10.37,2013-09-23 15:22:00,
2013-09-23 11:27:00,55.8,40.3,30.15,NW,315,3.4,4.2,56,0.00,BKN,,0.00,WeatherDisplay:10.37,2013-09-23 15:27:00,
2013-09-23 11:32:00,56.5,40.5,30.15,North,360,3.0,3.5,55,0.00,BKN,,0.00,WeatherDisplay:10.37,2013-09-23 15:32:00,
2013-09-23 11:37:00,56.1,40.1,30.15,NNW,338,2.6,6.9,55,0.00,BKN,,0.00,WeatherDisplay:10.37,2013-09-23 15:37:00,
2013-09-23 11:42:00,57.2,40.2,30.15,NE,45,3.3,4.6,53,0.00,BKN,,0.00,WeatherDisplay:10.37,2013-09-23 15:42:00,
2013-09-23 11:47:00,59.0,40.9,30.15,NW,315,4.4,5.8,51,0.00,BKN,,0.00,WeatherDisplay:10.37,2013-09-23 15:47:00,
2013-09-23 11:52:00,59.0,39.9,30.15,WNW,292,6.4,8.3,49,0.00,BKN,,0.00,WeatherDisplay:10.37,2013-09-23 15:52:00,
2013-09-23 11:57:00,57.7,38.7,30.15,NNE,22,4.6,8.1,49,0.00,BKN,,0.00,WeatherDisplay:10.37,2013-09-23 15:57:00,
2013-09-23 12:02:00,58.5,39.9,30.15,East,90,2.5,4.6,50,0.00,BKN,,0.00,WeatherDisplay:10.37,2013-09-23 16:02:00,
2013-09-23 12:07:00,58.6,40.5,30.15,NNE,22,3.8,5.8,51,0.00,BKN,,0.00,WeatherDisplay:10.37,2013-09-23 16:07:00,
2013-09-23 12:12:00,56.5,39.1,30.15,SW,225,7.0,8.1,52,0.00,SCT,,0.00,WeatherDisplay:10.37,2013-09-23 16:12:00,
2013-09-23 12:17:00,56.7,39.3,30.15,North,360,3.0,6.9,52,0.00,SCT,,0.00,WeatherDisplay:10.37,2013-09-23 16:17:00,
2013-09-23 12:22:00,58.6,39.5,30.15,West,270,6.7,8.1,49,0.00,SCT,,0.00,WeatherDisplay:10.37,2013-09-23 16:22:00,
2013-09-23 12:27:00,57.6,39.6,30.15,SSW,202,2.7,4.6,51,0.00,SCT,,0.00,WeatherDisplay:10.37,2013-09-23 16:27:00,
2013-09-23 12:32:00,57.0,39.0,30.15,West,270,4.1,4.6,51,0.00,SCT,,0.00,WeatherDisplay:10.37,2013-09-23 16:32:00,
2013-09-23 12:37:00,59.0,40.4,30.15,NNW,338,4.0,5.8,50,0.00,SCT,,0.00,WeatherDisplay:10.37,2013-09-23 16:37:00,
2013-09-23 12:42:00,61.0,40.1,30.14,ESE,112,2.9,4.6,46,0.00,SCT,,0.00,WeatherDisplay:10.37,2013-09-23 16:42:00,
2013-09-23 12:47:00,62.1,43.7,30.14,ESE,112,3.2,3.7,51,0.00,SCT,,0.00,WeatherDisplay:10.37,2013-09-23 16:47:00,
2013-09-23 12:52:00,61.9,39.1,30.14,NNW,338,5.9,6.9,43,0.00,SCT,,0.00,WeatherDisplay:10.37,2013-09-23 16:52:00,
2013-09-23 12:57:00,58.3,38.7,30.14,West,270,5.9,6.9,48,0.00,SCT,,0.00,WeatherDisplay:10.37,2013-09-23 16:57:00,
2013-09-23 13:02:00,58.8,39.1,30.14,NNE,22,3.5,5.3,48,0.00,SCT,,0.00,WeatherDisplay:10.37,2013-09-23 17:02:00,
2013-09-23 13:07:00,61.0,38.3,30.14,NE,45,3.0,6.9,43,0.00,SCT,,0.00,WeatherDisplay:10.37,2013-09-23 17:07:00,
2013-09-23 13:12:00,62.1,40.5,30.14,SW,225,3.2,5.8,45,0.00,FEW,,0.00,WeatherDisplay:10.37,2013-09-23 17:12:00,
2013-09-23 13:17:00,62.6,40.9,30.14,West,270,0.6,2.3,45,0.00,FEW,,0.00,WeatherDisplay:10.37,2013-09-23 17:17:00,
2013-09-23 13:22:00,65.3,41.0,30.14,West,270,3.3,4.6,41,0.00,FEW,,0.00,WeatherDisplay:10.37,2013-09-23 17:22:00,
2013-09-23 13:27:00,62.2,39.4,30.13,SSW,202,2.1,4.6,43,0.00,FEW,,0.00,WeatherDisplay:10.37,2013-09-23 17:27:00,
2013-09-23 13:32:00,61.7,40.1,30.13,ENE,68,3.9,4.7,45,0.00,FEW,,0.00,WeatherDisplay:10.37,2013-09-23 17:32:00,
2013-09-23 13:37:00,63.1,39.0,30.13,SW,225,4.1,6.8,41,0.00,FEW,,0.00,WeatherDisplay:10.37,2013-09-23 17:37:00,
2013-09-23 13:42:00,63.3,39.8,30.13,SSW,202,3.9,5.8,42,0.00,FEW,,0.00,WeatherDisplay:10.37,2013-09-23 17:42:00,
2013-09-23 13:47:00,63.1,37.7,30.13,SW,225,4.6,5.8,39,0.00,FEW,,0.00,WeatherDisplay:10.37,2013-09-23 17:47:00,
2013-09-23 13:52:00,63.9,38.4,30.14,North,360,6.5,8.3,39,0.00,FEW,,0.00,WeatherDisplay:10.37,2013-09-23 17:52:00,
2013-09-23 13:57:00,63.3,39.2,30.14,SSE,158,3.3,3.3,41,0.00,FEW,,0.00,WeatherDisplay:10.37,2013-09-23 17:57:00,
2013-09-23 14:02:00,63.1,38.4,30.12,West,270,5.4,6.8,40,0.00,FEW,,0.00,WeatherDisplay:10.37,2013-09-23 18:02:00,
2013-09-23 14:07:00,63.1,38.4,30.12,West,270,3.2,4.6,40,0.00,FEW,,0.00,WeatherDisplay:10.37,2013-09-23 18:07:00,
2013-09-23 14:12:00,64.0,39.8,30.12,NNE,22,4.1,5.8,41,0.00,FEW,,0.00,WeatherDisplay:10.37,2013-09-23 18:12:00,
2013-09-23 14:17:00,63.1,37.7,30.13,West,270,5.6,9.4,39,0.00,FEW,,0.00,WeatherDisplay:10.37,2013-09-23 18:17:00,
2013-09-23 14:22:00,63.5,38.1,30.13,NNE,22,4.2,4.6,39,0.00,FEW,,0.00,WeatherDisplay:10.37,2013-09-23 18:22:00,
2013-09-23 14:27:00,63.5,38.7,30.12,SW,225,1.8,3.5,40,0.00,FEW,,0.00,WeatherDisplay:10.37,2013-09-23 18:27:00,
2013-09-23 14:32:00,65.7,38.7,30.12,West,270,4.8,5.8,37,0.00,FEW,,0.00,WeatherDisplay:10.37,2013-09-23 18:32:00,
2013-09-23 14:37:00,64.9,38.0,30.12,SSW,202,5.3,6.8,37,0.00,FEW,,0.00,WeatherDisplay:10.37,2013-09-23 18:37:00,
2013-09-23 14:42:00,63.3,37.2,30.12,West,270,3.2,4.6,38,0.00,FEW,,0.00,WeatherDisplay:10.37,2013-09-23 18:42:00,
2013-09-23 14:47:00,64.0,37.9,30.12,WNW,292,3.1,4.6,38,0.00,FEW,,0.00,WeatherDisplay:10.37,2013-09-23 18:47:00,
2013-09-23 14:52:00,64.6,37.7,30.11,NNE,22,4.6,5.8,37,0.00,FEW,,0.00,WeatherDisplay:10.37,2013-09-23 18:52:00,
2013-09-23 14:57:00,64.4,38.2,30.11,NNE,22,3.1,3.5,38,0.00,FEW,,0.00,WeatherDisplay:10.37,2013-09-23 18:57:00,
2013-09-23 15:02:00,64.0,39.2,30.11,SE,135,2.0,2.3,40,0.00,FEW,,0.00,WeatherDisplay:10.37,2013-09-23 19:02:00,
2013-09-23 15:07:00,66.4,39.3,30.11,West,270,5.7,7.3,37,0.00,FEW,,0.00,WeatherDisplay:10.37,2013-09-23 19:07:00,
2013-09-23 15:12:00,65.3,38.3,30.11,West,270,2.9,4.6,37,0.00,FEW,,0.00,WeatherDisplay:10.37,2013-09-23 19:12:00,
2013-09-23 15:17:00,66.7,39.6,30.11,WNW,292,6.0,6.9,37,0.00,FEW,,0.00,WeatherDisplay:10.37,2013-09-23 19:17:00,
2013-09-23 15:22:00,65.5,38.5,30.11,West,270,6.5,9.2,37,0.00,FEW,,0.00,WeatherDisplay:10.37,2013-09-23 19:22:00,
2013-09-23 15:27:00,65.1,38.2,30.10,WSW,248,5.1,6.3,37,0.00,FEW,,0.00,WeatherDisplay:10.37,2013-09-23 19:27:00,
2013-09-23 15:32:00,65.7,39.4,30.10,SE,135,0.7,3.7,38,0.00,FEW,,0.00,WeatherDisplay:10.37,2013-09-23 19:32:00,
2013-09-23 15:37:00,65.5,39.2,30.10,SW,225,1.9,4.6,38,0.00,FEW,,0.00,WeatherDisplay:10.37,2013-09-23 19:37:00,
2013-09-23 15:42:00,64.8,38.6,30.10,SSW,202,3.7,6.9,38,0.00,FEW,,0.00,WeatherDisplay:10.37,2013-09-23 19:42:00,
2013-09-23 15:47:00,65.3,38.3,30.10,WSW,248,2.4,6.9,37,0.00,FEW,,0.00,WeatherDisplay:10.37,2013-09-23 19:47:00,
2013-09-23 15:52:00,65.3,38.3,30.10,West,270,6.3,7.3,37,0.00,FEW,,0.00,WeatherDisplay:10.37,2013-09-23 19:52:00,
2013-09-23 15:57:00,64.6,39.1,30.10,East,90,5.3,5.8,39,0.00,FEW,,0.00,WeatherDisplay:10.37,2013-09-23 19:57:00,
2013-09-23 16:02:00,64.0,39.8,30.10,SW,225,3.4,4.2,41,0.00,FEW,,0.00,WeatherDisplay:10.37,2013-09-23 20:02:00,
2013-09-23 16:07:00,64.0,39.8,30.10,WSW,248,1.7,3.5,41,0.00,FEW,,0.00,WeatherDisplay:10.37,2013-09-23 20:07:00,
2013-09-23 16:12:00,63.0,38.3,30.10,West,270,7.2,8.1,40,0.00,FEW,,0.00,WeatherDisplay:10.37,2013-09-23 20:12:00,
2013-09-23 16:17:00,63.3,38.6,30.10,SW,225,5.8,5.8,40,0.00,FEW,,0.00,WeatherDisplay:10.37,2013-09-23 20:17:00,
2013-09-23 16:22:00,63.9,39.1,30.10,West,270,5.4,5.8,40,0.00,FEW,,0.00,WeatherDisplay:10.37,2013-09-23 20:22:00,
2013-09-23 16:27:00,62.6,37.9,30.10,WSW,248,5.0,6.9,40,0.00,FEW,,0.00,WeatherDisplay:10.37,2013-09-23 20:27:00,
2013-09-23 16:32:00,63.7,38.9,30.10,NNW,338,2.7,5.8,40,0.00,FEW,,0.00,WeatherDisplay:10.37,2013-09-23 20:32:00,
2013-09-23 16:37:00,64.0,37.9,30.10,NE,45,2.2,4.6,38,0.00,FEW,,0.00,WeatherDisplay:10.37,2013-09-23 20:37:00,
2013-09-23 16:42:00,64.6,37.7,30.10,WNW,292,4.7,6.9,37,0.00,FEW,,0.00,WeatherDisplay:10.37,2013-09-23 20:42:00,
2013-09-23 16:47:00,64.6,37.0,30.10,WNW,292,4.2,5.8,36,0.00,FEW,,0.00,WeatherDisplay:10.37,2013-09-23 20:47:00,
2013-09-23 16:52:00,63.1,37.1,30.11,SW,225,5.7,9.4,38,0.00,FEW,,0.00,WeatherDisplay:10.37,2013-09-23 20:52:00,
2013-09-23 16:57:00,63.7,37.6,30.11,SSE,158,2.5,3.5,38,0.00,FEW,,0.00,WeatherDisplay:10.37,2013-09-23 20:57:00,
2013-09-23 17:02:00,64.8,37.9,30.11,West,270,4.6,6.3,37,0.00,FEW,,0.00,WeatherDisplay:10.37,2013-09-23 21:02:00,
2013-09-23 17:07:00,64.0,37.9,30.11,West,270,3.1,4.2,38,0.00,FEW,,0.00,WeatherDisplay:10.37,2013-09-23 21:07:00,
2013-09-23 17:12:00,64.8,36.5,30.11,WNW,292,5.3,8.1,35,0.00,CLR,,0.00,WeatherDisplay:10.37,2013-09-23 21:12:00,
2013-09-23 17:17:00,63.7,36.9,30.11,NW,315,3.9,3.9,37,0.00,CLR,,0.00,WeatherDisplay:10.37,2013-09-23 21:17:00,
2013-09-23 17:22:00,64.0,37.2,30.11,WSW,248,4.1,5.8,37,0.00,CLR,,0.00,WeatherDisplay:10.37,2013-09-23 21:22:00,
2013-09-23 17:27:00,65.7,37.3,30.11,South,180,1.3,3.5,35,0.00,CLR,,0.00,WeatherDisplay:10.37,2013-09-23 21:27:00,
2013-09-23 17:32:00,64.4,36.8,30.11,WNW,292,5.2,6.8,36,0.00,CLR,,0.00,WeatherDisplay:10.37,2013-09-23 21:32:00,
2013-09-23 17:37:00,64.0,36.5,30.11,WNW,292,3.6,5.8,36,0.00,CLR,,0.00,WeatherDisplay:10.37,2013-09-23 21:37:00,
2013-09-23 17:42:00,64.2,38.0,30.11,NNW,338,4.5,5.8,38,0.00,CLR,,0.00,WeatherDisplay:10.37,2013-09-23 21:42:00,
2013-09-23 17:47:00,63.9,37.8,30.11,WNW,292,4.4,5.8,38,0.00,CLR,,0.00,WeatherDisplay:10.37,2013-09-23 21:47:00,
2013-09-23 17:52:00,63.5,37.4,30.11,West,270,4.2,5.8,38,0.00,CLR,,0.00,WeatherDisplay:10.37,2013-09-23 21:52:00,
2013-09-23 17:57:00,61.9,36.7,30.11,West,270,5.9,6.9,39,0.00,CLR,,0.00,WeatherDisplay:10.37,2013-09-23 21:57:00,
2013-09-23 18:02:00,61.7,37.1,30.11,WSW,248,3.8,4.6,40,0.00,CLR,,0.00,WeatherDisplay:10.37,2013-09-23 22:02:00,
2013-09-23 18:07:00,63.0,37.0,30.11,NW,315,2.0,2.3,38,0.00,CLR,,0.00,WeatherDisplay:10.37,2013-09-23 22:07:00,
2013-09-23 18:12:00,62.8,36.8,30.11,East,90,2.8,4.6,38,0.00,CLR,,0.00,WeatherDisplay:10.37,2013-09-23 22:12:00,
2013-09-23 18:17:00,61.3,36.8,30.11,SW,225,4.7,6.9,40,0.00,CLR,,0.00,WeatherDisplay:10.37,2013-09-23 22:17:00,
2013-09-23 18:22:00,60.4,36.6,30.11,NNW,338,4.1,5.8,41,0.00,CLR,,0.00,WeatherDisplay:10.37,2013-09-23 22:22:00,
2013-09-23 18:27:00,60.4,36.6,30.11,West,270,4.3,5.8,41,0.00,CLR,,0.00,WeatherDisplay:10.37,2013-09-23 22:27:00,
2013-09-23 18:32:00,59.4,36.9,30.11,WSW,248,2.7,2.7,43,0.00,CLR,,0.00,WeatherDisplay:10.37,2013-09-23 22:32:00,
2013-09-23 18:37:00,60.3,37.1,30.11,West,270,2.7,3.5,42,0.00,CLR,,0.00,WeatherDisplay:10.37,2013-09-23 22:37:00,
2013-09-23 18:42:00,59.0,37.1,30.10,West,270,0.3,2.2,44,0.00,CLR,,0.00,WeatherDisplay:10.37,2013-09-23 22:42:00,
2013-09-23 18:47:00,59.5,37.0,30.10,West,270,2.2,2.7,43,0.00,CLR,,0.00,WeatherDisplay:10.37,2013-09-23 22:47:00,
2013-09-23 18:52:00,58.3,37.6,30.11,NE,45,0.2,1.1,46,0.00,CLR,,0.00,WeatherDisplay:10.37,2013-09-23 22:52:00,
2013-09-23 18:57:00,58.3,37.6,30.11,East,90,0.1,1.1,46,0.00,CLR,,0.00,WeatherDisplay:10.37,2013-09-23 22:57:00,
2013-09-23 19:02:00,57.6,37.5,30.11,West,270,0.0,0.0,47,0.00,CLR,,0.00,WeatherDisplay:10.37,2013-09-23 23:02:00,
2013-09-23 19:08:00,56.3,37.9,30.11,NNW,338,0.0,1.1,50,0.00,CLR,,0.00,WeatherDisplay:10.37,2013-09-23 23:08:00,
2013-09-23 19:13:00,55.2,37.4,30.11,WNW,292,0.0,0.0,51,0.00,CLR,,0.00,WeatherDisplay:10.37,2013-09-23 23:13:00,
2013-09-23 19:18:00,54.1,37.8,30.11,ESE,112,0.0,0.0,54,0.00,CLR,,0.00,WeatherDisplay:10.37,2013-09-23 23:18:00,
2013-09-23 19:23:00,53.1,37.8,30.11,NNW,338,0.0,0.0,56,0.00,CLR,,0.00,WeatherDisplay:10.37,2013-09-23 23:23:00,
2013-09-23 19:28:00,52.3,37.5,30.11,NNW,338,0.0,0.0,57,0.00,CLR,,0.00,WeatherDisplay:10.37,2013-09-23 23:28:00,
2013-09-23 19:33:00,51.4,38.0,30.11,NNE,22,0.0,0.0,60,0.00,CLR,,0.00,WeatherDisplay:10.37,2013-09-23 23:33:00,
2013-09-23 19:38:00,50.9,37.9,30.11,NNE,22,0.0,0.0,61,0.00,CLR,,0.00,WeatherDisplay:10.37,2013-09-23 23:38:00,
2013-09-23 19:43:00,49.8,38.1,30.11,SSE,158,0.0,0.0,64,0.00,CLR,,0.00,WeatherDisplay:10.37,2013-09-23 23:43:00,
2013-09-23 19:48:00,49.3,38.0,30.11,SE,135,0.0,0.0,65,0.00,CLR,,0.00,WeatherDisplay:10.37,2013-09-23 23:48:00,
2013-09-23 19:53:00,48.6,38.9,30.11,SE,135,0.0,0.0,69,0.00,CLR,,0.00,WeatherDisplay:10.37,2013-09-23 23:53:00,
2013-09-23 19:58:00,48.0,39.4,30.11,SE,135,0.0,0.0,72,0.00,CLR,,0.00,WeatherDisplay:10.37,2013-09-23 23:58:00,
2013-09-23 20:03:00,47.7,39.1,30.11,SE,135,0.0,0.0,72,0.00,CLR,,0.00,WeatherDisplay:10.37,2013-09-24 00:03:00,
2013-09-23 20:08:00,47.1,38.9,30.11,SE,135,0.0,0.0,73,0.00,CLR,,0.00,WeatherDisplay:10.37,2013-09-24 00:08:00,
2013-09-23 20:13:00,46.6,39.1,30.11,SE,135,0.0,0.0,75,0.00,FEW,,0.00,WeatherDisplay:10.37,2013-09-24 00:13:00,
2013-09-23 20:18:00,46.2,40.0,30.12,SSE,158,0.0,0.0,79,0.00,FEW,,0.00,WeatherDisplay:10.37,2013-09-24 00:18:00,
2013-09-23 20:23:00,45.9,40.1,30.12,SE,135,0.0,0.0,80,0.00,FEW,,0.00,WeatherDisplay:10.37,2013-09-24 00:23:00,
2013-09-23 20:28:00,45.5,40.0,30.12,SE,135,0.0,0.0,81,0.00,FEW,,0.00,WeatherDisplay:10.37,2013-09-24 00:28:00,
2013-09-23 20:33:00,45.1,39.9,30.12,ESE,112,0.0,0.0,82,0.00,FEW,,0.00,WeatherDisplay:10.37,2013-09-24 00:33:00,
2013-09-23 20:38:00,45.0,39.8,30.12,SSE,158,0.0,0.0,82,0.00,FEW,,0.00,WeatherDisplay:10.37,2013-09-24 00:38:00,
2013-09-23 20:43:00,44.6,39.8,30.12,SE,135,0.0,0.0,83,0.00,FEW,,0.00,WeatherDisplay:10.37,2013-09-24 00:43:00,
2013-09-23 20:48:00,44.2,39.4,30.12,ESE,112,0.3,1.1,83,0.00,FEW,,0.00,WeatherDisplay:10.37,2013-09-24 00:48:00,
2013-09-23 20:53:00,44.1,39.6,30.12,SE,135,0.4,1.1,84,0.00,FEW,,0.00,WeatherDisplay:10.37,2013-09-24 00:53:00,
2013-09-23 20:58:00,43.9,39.7,30.12,SSE,158,0.0,0.0,85,0.00,FEW,,0.00,WeatherDisplay:10.37,2013-09-24 00:58:00,
2013-09-23 21:03:00,43.7,39.8,30.12,ESE,112,0.0,0.0,86,0.00,FEW,,0.00,WeatherDisplay:10.37,2013-09-24 01:03:00,
2013-09-23 21:08:00,43.5,39.6,30.12,SE,135,0.0,0.0,86,0.00,FEW,,0.00,WeatherDisplay:10.37,2013-09-24 01:08:00,
2013-09-23 21:13:00,43.3,39.7,30.12,SE,135,0.0,0.0,87,0.00,FEW,,0.00,WeatherDisplay:10.37,2013-09-24 01:13:00,
2013-09-23 21:18:00,43.2,39.6,30.12,ESE,112,1.3,2.3,87,0.00,FEW,,0.00,WeatherDisplay:10.37,2013-09-24 01:18:00,
2013-09-23 21:23:00,43.2,39.9,30.12,SE,135,2.0,2.3,88,0.00,FEW,,0.00,WeatherDisplay:10.37,2013-09-24 01:23:00,
2013-09-23 21:28:00,42.8,39.8,30.11,SE,135,0.4,1.7,89,0.00,FEW,,0.00,WeatherDisplay:10.37,2013-09-24 01:28:00,
2013-09-23 21:33:00,42.8,40.1,30.11,ESE,112,1.2,2.3,90,0.00,FEW,,0.00,WeatherDisplay:10.37,2013-09-24 01:33:00,
2013-09-23 21:38:00,42.8,40.6,30.11,ESE,112,2.2,2.3,92,0.00,FEW,,0.00,WeatherDisplay:10.37,2013-09-24 01:38:00,
2013-09-23 21:43:00,42.6,40.4,30.11,SW,225,1.0,1.1,92,0.00,FEW,,0.00,WeatherDisplay:10.37,2013-09-24 01:43:00,
2013-09-23 21:48:00,42.4,40.0,30.11,SE,135,0.0,0.0,91,0.00,FEW,,0.00,WeatherDisplay:10.37,2013-09-24 01:48:00,
2013-09-23 21:53:00,42.3,39.9,30.12,ESE,112,1.8,2.3,91,0.00,FEW,,0.00,WeatherDisplay:10.37,2013-09-24 01:53:00,
2013-09-23 21:58:00,42.3,40.1,30.12,SSE,158,0.6,1.1,92,0.00,FEW,,0.00,WeatherDisplay:10.37,2013-09-24 01:58:00,
2013-09-23 22:03:00,42.1,40.2,30.12,SSE,158,0.0,0.0,93,0.00,FEW,,0.00,WeatherDisplay:10.37,2013-09-24 02:03:00,
2013-09-23 22:08:00,41.9,40.0,30.12,SSE,158,0.0,0.0,93,0.00,FEW,,0.00,WeatherDisplay:10.37,2013-09-24 02:08:00,
2013-09-23 22:13:00,41.7,39.8,30.12,SSE,158,0.0,0.0,93,0.00,CLR,,0.00,WeatherDisplay:10.37,2013-09-24 02:13:00,
2013-09-23 22:18:00,41.5,39.6,30.12,ESE,112,0.0,0.0,93,0.00,CLR,,0.00,WeatherDisplay:10.37,2013-09-24 02:18:00,
2013-09-23 22:23:00,41.4,39.8,30.12,ESE,112,0.0,1.7,94,0.00,CLR,,0.00,WeatherDisplay:10.37,2013-09-24 02:23:00,
2013-09-23 22:28:00,41.4,39.8,30.12,SE,135,1.0,1.7,94,0.00,CLR,,0.00,WeatherDisplay:10.37,2013-09-24 02:28:00,
2013-09-23 22:33:00,41.4,39.8,30.12,SE,135,0.8,1.1,94,0.00,CLR,,0.00,WeatherDisplay:10.37,2013-09-24 02:33:00,
2013-09-23 22:38:00,41.2,39.9,30.12,SE,135,0.2,1.1,95,0.00,CLR,,0.00,WeatherDisplay:10.37,2013-09-24 02:38:00,
2013-09-23 22:43:00,41.0,39.7,30.12,SE,135,0.0,0.0,95,0.00,CLR,,0.00,WeatherDisplay:10.37,2013-09-24 02:43:00,
2013-09-23 22:48:00,40.8,39.5,30.12,SE,135,0.0,0.0,95,0.00,CLR,,0.00,WeatherDisplay:10.37,2013-09-24 02:48:00,
2013-09-23 22:53:00,40.8,39.5,30.12,SE,135,0.0,0.0,95,0.00,CLR,,0.00,WeatherDisplay:10.37,2013-09-24 02:53:00,
2013-09-23 22:58:00,40.8,39.5,30.12,SE,135,0.0,0.0,95,0.00,CLR,,0.00,WeatherDisplay:10.37,2013-09-24 02:58:00,
2013-09-23 23:03:00,40.8,39.5,30.12,SE,135,0.0,0.0,95,0.00,CLR,,0.00,WeatherDisplay:10.37,2013-09-24 03:03:00,
2013-09-23 23:08:00,40.5,39.2,30.12,SSE,158,0.0,0.0,95,0.00,CLR,,0.00,WeatherDisplay:10.37,2013-09-24 03:08:00,
2013-09-23 23:13:00,40.3,39.0,30.12,SE,135,0.0,0.0,95,0.00,CLR,,0.00,WeatherDisplay:10.37,2013-09-24 03:13:00,
2013-09-23 23:18:00,40.3,39.0,30.12,SSE,158,0.0,0.0,95,0.00,CLR,,0.00,WeatherDisplay:10.37,2013-09-24 03:18:00,
2013-09-23 23:23:00,40.3,39.0,30.12,ESE,112,0.0,0.0,95,0.00,CLR,,0.00,WeatherDisplay:10.37,2013-09-24 03:23:00,
2013-09-23 23:28:00,40.3,39.0,30.12,ESE,112,2.0,2.3,95,0.00,CLR,,0.00,WeatherDisplay:10.37,2013-09-24 03:28:00,
2013-09-23 23:33:00,40.3,39.0,30.12,SE,135,0.0,0.0,95,0.00,CLR,,0.00,WeatherDisplay:10.37,2013-09-24 03:33:00,
2013-09-23 23:38:00,40.3,39.0,30.12,ESE,112,0.0,0.0,95,0.00,CLR,,0.00,WeatherDisplay:10.37,2013-09-24 03:38:00,
2013-09-23 23:43:00,40.1,38.8,30.12,SE,135,0.0,0.0,95,0.00,CLR,,0.00,WeatherDisplay:10.37,2013-09-24 03:43:00,
2013-09-23 23:48:00,39.9,38.6,30.12,SE,135,0.0,0.0,95,0.00,CLR,,0.00,WeatherDisplay:10.37,2013-09-24 03:48:00,
2013-09-23 23:53:00,39.9,38.6,30.13,ESE,112,0.0,0.0,95,0.00,CLR,,0.00,WeatherDisplay:10.37,2013-09-24 03:53:00,
2013-09-23 23:58:00,39.9,38.6,30.13,ESE,112,0.0,0.0,95,0.00,CLR,,0.00,WeatherDisplay:10.37,2013-09-24 03:58:00,